Flugplatz Münster Osnabrück

Bericht für EDDG

vom 20.10. um 18:20 UTC

Wind 8 kt aus 30°

Sichtweite 6000 m

schwacher Regen

aufgebrochene Bewölkung in 700 ft

aufgebrochene Bewölkung in 1600 ft

Temperatur 11.0°C

Taupunkt 11.0°C

Luftfeuchtigkeit 100%

Luftdruck 1009 hPa

EDDG 201820Z 03008KT 6000 -RA BKN007 BKN016 11/11 Q1009 TEMPO 4000

Prognose für EDDG

vom 20.10. um 00:00 UTC

Zwischen 00:00 UTC und 00:00 UTC

Wind 6 kt aus 40°

Sichtweite 7000 m

aufgebrochene Bewölkung in 3000 ft


Zwischen 00:00 und 00:00 UTC übergehend zu

Wind 6 kt aus 40°

Sichtweite 3000 m

schwacher Regen

feuchter Dunst

aufgebrochene Bewölkung in 700 ft


Zwischen 00:00 UTC und 00:00 UTC zeitweise

Sichtweite 1200 m

Regen

Sprühregen

aufgebrochene Bewölkung in 200 ft


Am 21.10. zwischen 00:00 und 00:00 UTC übergehend zu

Wind 7 kt aus 190°

Sichtweite 10 km oder mehr

schwacher Regen

feuchter Dunst

aufgebrochene Bewölkung in 3000 ft

TAF EDDG 201700Z 2018/2118 04006KT 7000 BKN030 BECMG 2019/2022 3000 -RA BR BKN007 TEMPO 2019/2106 1200 RADZ BKN002 BECMG 2106/2109 19007KT 9999 BKN030
Impressum